sensor_id;sensor_type;location;lat;lon;timestamp;P1;durP1;ratioP1;P2;durP2;ratioP2
4377;SDS011;2203;53.686;9.994;2024-03-17T00:01:37;21.57;;;3.57;;
4377;SDS011;2203;53.686;9.994;2024-03-17T00:04:02;25.57;;;3.57;;
4377;SDS011;2203;53.686;9.994;2024-03-17T00:06:28;29.07;;;4.20;;
4377;SDS011;2203;53.686;9.994;2024-03-17T00:08:54;26.43;;;3.73;;
4377;SDS011;2203;53.686;9.994;2024-03-17T00:11:20;25.47;;;3.90;;
4377;SDS011;2203;53.686;9.994;2024-03-17T00:13:45;23.93;;;3.00;;
4377;SDS011;2203;53.686;9.994;2024-03-17T00:16:11;30.33;;;3.53;;
4377;SDS011;2203;53.686;9.994;2024-03-17T00:18:38;30.70;;;5.33;;
4377;SDS011;2203;53.686;9.994;2024-03-17T00:21:04;21.70;;;3.50;;
4377;SDS011;2203;53.686;9.994;2024-03-17T00:23:29;26.43;;;3.30;;
4377;SDS011;2203;53.686;9.994;2024-03-17T00:25:55;32.93;;;3.50;;
4377;SDS011;2203;53.686;9.994;2024-03-17T00:28:20;19.03;;;2.90;;
4377;SDS011;2203;53.686;9.994;2024-03-17T00:30:45;23.07;;;3.73;;
4377;SDS011;2203;53.686;9.994;2024-03-17T00:33:11;31.27;;;4.53;;
4377;SDS011;2203;53.686;9.994;2024-03-17T00:35:37;16.13;;;2.87;;
4377;SDS011;2203;53.686;9.994;2024-03-17T00:38:02;33.47;;;4.00;;
4377;SDS011;2203;53.686;9.994;2024-03-17T00:40:35;31.40;;;3.33;;
4377;SDS011;2203;53.686;9.994;2024-03-17T00:43:00;21.50;;;3.47;;
4377;SDS011;2203;53.686;9.994;2024-03-17T00:45:26;26.03;;;4.07;;
4377;SDS011;2203;53.686;9.994;2024-03-17T00:47:51;30.63;;;3.87;;
4377;SDS011;2203;53.686;9.994;2024-03-17T00:50:16;24.97;;;3.53;;
4377;SDS011;2203;53.686;9.994;2024-03-17T00:52:42;18.43;;;3.57;;
4377;SDS011;2203;53.686;9.994;2024-03-17T00:55:07;27.93;;;4.10;;
4377;SDS011;2203;53.686;9.994;2024-03-17T00:57:35;28.70;;;4.83;;
4377;SDS011;2203;53.686;9.994;2024-03-17T01:00:00;28.50;;;3.77;;
4377;SDS011;2203;53.686;9.994;2024-03-17T01:02:26;44.77;;;5.13;;
4377;SDS011;2203;53.686;9.994;2024-03-17T01:04:51;35.83;;;3.53;;
4377;SDS011;2203;53.686;9.994;2024-03-17T01:07:17;31.57;;;4.33;;
4377;SDS011;2203;53.686;9.994;2024-03-17T01:09:42;16.17;;;3.20;;
4377;SDS011;2203;53.686;9.994;2024-03-17T01:12:07;32.40;;;3.73;;
4377;SDS011;2203;53.686;9.994;2024-03-17T01:14:33;24.67;;;4.40;;
4377;SDS011;2203;53.686;9.994;2024-03-17T01:16:59;24.97;;;3.50;;
4377;SDS011;2203;53.686;9.994;2024-03-17T01:19:25;16.20;;;4.20;;
4377;SDS011;2203;53.686;9.994;2024-03-17T01:21:51;28.80;;;5.47;;
4377;SDS011;2203;53.686;9.994;2024-03-17T01:24:17;37.47;;;4.50;;
4377;SDS011;2203;53.686;9.994;2024-03-17T01:26:43;14.73;;;2.83;;
4377;SDS011;2203;53.686;9.994;2024-03-17T01:29:09;22.97;;;3.20;;
4377;SDS011;2203;53.686;9.994;2024-03-17T01:31:34;16.73;;;4.10;;
4377;SDS011;2203;53.686;9.994;2024-03-17T01:34:00;17.80;;;3.37;;
4377;SDS011;2203;53.686;9.994;2024-03-17T01:36:26;21.33;;;3.50;;
4377;SDS011;2203;53.686;9.994;2024-03-17T01:38:51;29.43;;;4.30;;
4377;SDS011;2203;53.686;9.994;2024-03-17T01:41:16;35.23;;;3.67;;
4377;SDS011;2203;53.686;9.994;2024-03-17T01:43:42;19.97;;;3.90;;
4377;SDS011;2203;53.686;9.994;2024-03-17T01:46:11;23.27;;;4.10;;
4377;SDS011;2203;53.686;9.994;2024-03-17T01:48:39;30.40;;;3.10;;
4377;SDS011;2203;53.686;9.994;2024-03-17T01:51:04;35.27;;;3.13;;
4377;SDS011;2203;53.686;9.994;2024-03-17T01:53:30;30.43;;;3.60;;
4377;SDS011;2203;53.686;9.994;2024-03-17T01:55:56;21.67;;;3.03;;
4377;SDS011;2203;53.686;9.994;2024-03-17T01:58:24;28.17;;;3.83;;
4377;SDS011;2203;53.686;9.994;2024-03-17T02:00:50;36.83;;;3.30;;
4377;SDS011;2203;53.686;9.994;2024-03-17T02:03:17;26.10;;;3.10;;
4377;SDS011;2203;53.686;9.994;2024-03-17T02:05:42;18.00;;;3.73;;
4377;SDS011;2203;53.686;9.994;2024-03-17T02:08:09;23.70;;;3.10;;
4377;SDS011;2203;53.686;9.994;2024-03-17T02:10:35;24.80;;;3.93;;
4377;SDS011;2203;53.686;9.994;2024-03-17T02:13:01;22.00;;;3.27;;
4377;SDS011;2203;53.686;9.994;2024-03-17T02:15:28;24.37;;;3.50;;
4377;SDS011;2203;53.686;9.994;2024-03-17T02:17:53;33.50;;;3.50;;
4377;SDS011;2203;53.686;9.994;2024-03-17T02:20:19;25.70;;;4.50;;
4377;SDS011;2203;53.686;9.994;2024-03-17T02:22:44;28.03;;;3.97;;
4377;SDS011;2203;53.686;9.994;2024-03-17T02:25:10;27.80;;;3.40;;
4377;SDS011;2203;53.686;9.994;2024-03-17T02:27:35;23.87;;;3.63;;
4377;SDS011;2203;53.686;9.994;2024-03-17T02:30:02;38.77;;;3.03;;
4377;SDS011;2203;53.686;9.994;2024-03-17T02:32:29;22.43;;;3.30;;
4377;SDS011;2203;53.686;9.994;2024-03-17T02:34:55;31.97;;;3.80;;
4377;SDS011;2203;53.686;9.994;2024-03-17T02:37:21;28.23;;;3.07;;
4377;SDS011;2203;53.686;9.994;2024-03-17T02:39:47;31.57;;;3.70;;
4377;SDS011;2203;53.686;9.994;2024-03-17T02:42:12;26.03;;;3.53;;
4377;SDS011;2203;53.686;9.994;2024-03-17T02:44:38;23.97;;;3.53;;
4377;SDS011;2203;53.686;9.994;2024-03-17T02:47:05;16.83;;;2.73;;
4377;SDS011;2203;53.686;9.994;2024-03-17T02:49:33;23.77;;;3.30;;
4377;SDS011;2203;53.686;9.994;2024-03-17T02:52:03;40.17;;;3.97;;
4377;SDS011;2203;53.686;9.994;2024-03-17T02:54:29;20.10;;;3.50;;
4377;SDS011;2203;53.686;9.994;2024-03-17T02:56:55;26.67;;;4.47;;
4377;SDS011;2203;53.686;9.994;2024-03-17T02:59:20;25.20;;;3.33;;
4377;SDS011;2203;53.686;9.994;2024-03-17T03:01:46;30.17;;;3.77;;
4377;SDS011;2203;53.686;9.994;2024-03-17T03:04:12;18.87;;;3.13;;
4377;SDS011;2203;53.686;9.994;2024-03-17T03:06:37;42.67;;;4.90;;
4377;SDS011;2203;53.686;9.994;2024-03-17T03:09:03;26.53;;;3.13;;
4377;SDS011;2203;53.686;9.994;2024-03-17T03:11:30;19.30;;;2.67;;
4377;SDS011;2203;53.686;9.994;2024-03-17T03:13:56;15.37;;;2.50;;
4377;SDS011;2203;53.686;9.994;2024-03-17T03:16:21;23.80;;;2.93;;
4377;SDS011;2203;53.686;9.994;2024-03-17T03:18:47;19.20;;;2.73;;
4377;SDS011;2203;53.686;9.994;2024-03-17T03:21:12;22.73;;;3.40;;
4377;SDS011;2203;53.686;9.994;2024-03-17T03:23:37;28.60;;;2.80;;
4377;SDS011;2203;53.686;9.994;2024-03-17T03:26:03;24.97;;;3.63;;
4377;SDS011;2203;53.686;9.994;2024-03-17T03:28:30;15.47;;;2.77;;
4377;SDS011;2203;53.686;9.994;2024-03-17T03:30:56;22.77;;;2.93;;
4377;SDS011;2203;53.686;9.994;2024-03-17T03:33:22;22.23;;;2.80;;
4377;SDS011;2203;53.686;9.994;2024-03-17T03:35:48;22.17;;;3.20;;
4377;SDS011;2203;53.686;9.994;2024-03-17T03:38:14;24.43;;;3.63;;
4377;SDS011;2203;53.686;9.994;2024-03-17T03:40:40;14.40;;;3.00;;
4377;SDS011;2203;53.686;9.994;2024-03-17T03:43:07;24.13;;;3.13;;
4377;SDS011;2203;53.686;9.994;2024-03-17T03:45:33;20.50;;;3.40;;
4377;SDS011;2203;53.686;9.994;2024-03-17T03:47:59;13.03;;;2.97;;
4377;SDS011;2203;53.686;9.994;2024-03-17T03:50:24;31.10;;;4.67;;
4377;SDS011;2203;53.686;9.994;2024-03-17T03:52:50;17.30;;;2.73;;
4377;SDS011;2203;53.686;9.994;2024-03-17T03:55:15;17.83;;;3.87;;
4377;SDS011;2203;53.686;9.994;2024-03-17T03:57:42;34.50;;;4.90;;
4377;SDS011;2203;53.686;9.994;2024-03-17T04:00:08;20.53;;;2.97;;
4377;SDS011;2203;53.686;9.994;2024-03-17T04:02:46;17.33;;;3.00;;
4377;SDS011;2203;53.686;9.994;2024-03-17T04:05:13;19.27;;;2.73;;
4377;SDS011;2203;53.686;9.994;2024-03-17T04:07:38;11.40;;;3.13;;
4377;SDS011;2203;53.686;9.994;2024-03-17T04:10:04;27.07;;;3.47;;
4377;SDS011;2203;53.686;9.994;2024-03-17T04:12:30;17.03;;;2.77;;
4377;SDS011;2203;53.686;9.994;2024-03-17T04:14:59;23.60;;;3.60;;
4377;SDS011;2203;53.686;9.994;2024-03-17T04:17:25;26.07;;;3.93;;
4377;SDS011;2203;53.686;9.994;2024-03-17T04:19:51;20.17;;;3.00;;
4377;SDS011;2203;53.686;9.994;2024-03-17T04:22:17;28.70;;;3.30;;
4377;SDS011;2203;53.686;9.994;2024-03-17T04:24:43;27.07;;;3.00;;
4377;SDS011;2203;53.686;9.994;2024-03-17T04:27:09;23.43;;;3.20;;
4377;SDS011;2203;53.686;9.994;2024-03-17T04:29:35;19.13;;;2.93;;
4377;SDS011;2203;53.686;9.994;2024-03-17T04:32:00;24.70;;;3.40;;
4377;SDS011;2203;53.686;9.994;2024-03-17T04:34:27;17.40;;;3.00;;
4377;SDS011;2203;53.686;9.994;2024-03-17T04:36:52;15.77;;;3.20;;
4377;SDS011;2203;53.686;9.994;2024-03-17T04:39:18;35.33;;;3.77;;
4377;SDS011;2203;53.686;9.994;2024-03-17T04:41:44;23.03;;;3.73;;
4377;SDS011;2203;53.686;9.994;2024-03-17T04:44:10;27.20;;;2.87;;
4377;SDS011;2203;53.686;9.994;2024-03-17T04:46:36;26.97;;;3.90;;
4377;SDS011;2203;53.686;9.994;2024-03-17T04:49:01;31.17;;;5.13;;
4377;SDS011;2203;53.686;9.994;2024-03-17T04:51:28;16.40;;;2.87;;
4377;SDS011;2203;53.686;9.994;2024-03-17T04:53:54;14.43;;;3.30;;
4377;SDS011;2203;53.686;9.994;2024-03-17T04:56:20;21.00;;;3.50;;
4377;SDS011;2203;53.686;9.994;2024-03-17T04:58:45;21.70;;;3.70;;
4377;SDS011;2203;53.686;9.994;2024-03-17T05:01:10;22.73;;;3.37;;
4377;SDS011;2203;53.686;9.994;2024-03-17T05:03:37;27.10;;;3.50;;
4377;SDS011;2203;53.686;9.994;2024-03-17T05:06:03;29.00;;;4.80;;
4377;SDS011;2203;53.686;9.994;2024-03-17T05:08:29;20.93;;;3.50;;
4377;SDS011;2203;53.686;9.994;2024-03-17T05:10:58;20.87;;;3.40;;
4377;SDS011;2203;53.686;9.994;2024-03-17T05:13:24;20.40;;;3.43;;
4377;SDS011;2203;53.686;9.994;2024-03-17T05:15:51;27.57;;;5.17;;
4377;SDS011;2203;53.686;9.994;2024-03-17T05:18:16;22.90;;;3.60;;
4377;SDS011;2203;53.686;9.994;2024-03-17T05:20:42;23.10;;;3.57;;
4377;SDS011;2203;53.686;9.994;2024-03-17T05:23:07;21.93;;;5.10;;
4377;SDS011;2203;53.686;9.994;2024-03-17T05:25:32;19.73;;;3.00;;
4377;SDS011;2203;53.686;9.994;2024-03-17T05:28:01;20.73;;;3.33;;
4377;SDS011;2203;53.686;9.994;2024-03-17T05:30:27;23.23;;;3.50;;
4377;SDS011;2203;53.686;9.994;2024-03-17T05:32:53;32.10;;;3.90;;
4377;SDS011;2203;53.686;9.994;2024-03-17T05:35:18;28.53;;;4.40;;
4377;SDS011;2203;53.686;9.994;2024-03-17T05:37:43;24.30;;;4.87;;
4377;SDS011;2203;53.686;9.994;2024-03-17T05:40:09;25.90;;;4.00;;
4377;SDS011;2203;53.686;9.994;2024-03-17T05:42:37;28.47;;;3.60;;
4377;SDS011;2203;53.686;9.994;2024-03-17T05:45:03;22.23;;;3.70;;
4377;SDS011;2203;53.686;9.994;2024-03-17T05:47:28;35.17;;;4.53;;
4377;SDS011;2203;53.686;9.994;2024-03-17T05:49:54;13.97;;;3.03;;
4377;SDS011;2203;53.686;9.994;2024-03-17T05:52:21;27.50;;;4.57;;
4377;SDS011;2203;53.686;9.994;2024-03-17T05:54:46;19.03;;;3.10;;
4377;SDS011;2203;53.686;9.994;2024-03-17T05:57:12;18.57;;;3.47;;
4377;SDS011;2203;53.686;9.994;2024-03-17T05:59:39;27.60;;;3.97;;
4377;SDS011;2203;53.686;9.994;2024-03-17T06:02:04;22.00;;;3.40;;
4377;SDS011;2203;53.686;9.994;2024-03-17T06:04:30;23.10;;;3.37;;
4377;SDS011;2203;53.686;9.994;2024-03-17T06:06:55;23.50;;;3.70;;
4377;SDS011;2203;53.686;9.994;2024-03-17T06:09:21;23.27;;;3.60;;
4377;SDS011;2203;53.686;9.994;2024-03-17T06:15:09;35.53;;;5.37;;
4377;SDS011;2203;53.686;9.994;2024-03-17T06:17:35;21.73;;;3.60;;
4377;SDS011;2203;53.686;9.994;2024-03-17T06:23:40;34.33;;;4.20;;
4377;SDS011;2203;53.686;9.994;2024-03-17T06:26:28;19.73;;;4.47;;
4377;SDS011;2203;53.686;9.994;2024-03-17T06:32:50;22.90;;;3.60;;
4377;SDS011;2203;53.686;9.994;2024-03-17T06:35:26;14.17;;;3.20;;
4377;SDS011;2203;53.686;9.994;2024-03-17T06:37:52;25.23;;;3.33;;
4377;SDS011;2203;53.686;9.994;2024-03-17T06:40:19;36.93;;;4.07;;
4377;SDS011;2203;53.686;9.994;2024-03-17T06:42:44;17.53;;;3.40;;
4377;SDS011;2203;53.686;9.994;2024-03-17T06:45:10;21.80;;;4.13;;
4377;SDS011;2203;53.686;9.994;2024-03-17T06:47:36;21.93;;;4.27;;
4377;SDS011;2203;53.686;9.994;2024-03-17T06:50:03;19.60;;;3.40;;
4377;SDS011;2203;53.686;9.994;2024-03-17T06:52:29;25.03;;;3.53;;
4377;SDS011;2203;53.686;9.994;2024-03-17T06:54:56;14.40;;;3.60;;
4377;SDS011;2203;53.686;9.994;2024-03-17T06:57:23;24.50;;;4.60;;
4377;SDS011;2203;53.686;9.994;2024-03-17T06:59:49;14.90;;;3.23;;
4377;SDS011;2203;53.686;9.994;2024-03-17T07:02:15;16.70;;;3.70;;
4377;SDS011;2203;53.686;9.994;2024-03-17T07:04:43;35.53;;;4.87;;
4377;SDS011;2203;53.686;9.994;2024-03-17T07:07:09;22.90;;;4.37;;
4377;SDS011;2203;53.686;9.994;2024-03-17T07:09:34;19.50;;;4.43;;
4377;SDS011;2203;53.686;9.994;2024-03-17T07:12:00;19.37;;;4.37;;
4377;SDS011;2203;53.686;9.994;2024-03-17T07:14:25;22.73;;;4.03;;
4377;SDS011;2203;53.686;9.994;2024-03-17T07:16:51;14.27;;;3.73;;
4377;SDS011;2203;53.686;9.994;2024-03-17T07:19:17;20.43;;;3.83;;
4377;SDS011;2203;53.686;9.994;2024-03-17T07:21:42;18.07;;;3.93;;
4377;SDS011;2203;53.686;9.994;2024-03-17T07:24:08;18.67;;;3.80;;
4377;SDS011;2203;53.686;9.994;2024-03-17T07:26:33;17.30;;;4.20;;
4377;SDS011;2203;53.686;9.994;2024-03-17T07:28:59;27.07;;;3.40;;
4377;SDS011;2203;53.686;9.994;2024-03-17T07:31:25;18.73;;;3.43;;
4377;SDS011;2203;53.686;9.994;2024-03-17T07:33:50;20.43;;;4.03;;
4377;SDS011;2203;53.686;9.994;2024-03-17T07:36:16;19.00;;;3.33;;
4377;SDS011;2203;53.686;9.994;2024-03-17T07:38:41;23.13;;;5.60;;
4377;SDS011;2203;53.686;9.994;2024-03-17T07:41:08;17.60;;;3.53;;
4377;SDS011;2203;53.686;9.994;2024-03-17T07:43:37;26.77;;;3.60;;
4377;SDS011;2203;53.686;9.994;2024-03-17T07:46:04;21.10;;;3.80;;
4377;SDS011;2203;53.686;9.994;2024-03-17T07:48:35;20.77;;;3.90;;
4377;SDS011;2203;53.686;9.994;2024-03-17T07:51:02;24.50;;;4.00;;
4377;SDS011;2203;53.686;9.994;2024-03-17T07:53:30;18.90;;;2.77;;
4377;SDS011;2203;53.686;9.994;2024-03-17T07:55:56;19.13;;;3.03;;
4377;SDS011;2203;53.686;9.994;2024-03-17T07:58:23;13.20;;;2.70;;
4377;SDS011;2203;53.686;9.994;2024-03-17T08:00:51;13.90;;;2.97;;
4377;SDS011;2203;53.686;9.994;2024-03-17T08:03:35;32.73;;;5.07;;
4377;SDS011;2203;53.686;9.994;2024-03-17T08:09:23;14.40;;;3.70;;
4377;SDS011;2203;53.686;9.994;2024-03-17T08:12:46;19.57;;;3.10;;
4377;SDS011;2203;53.686;9.994;2024-03-17T08:15:12;20.03;;;2.80;;
4377;SDS011;2203;53.686;9.994;2024-03-17T08:18:19;23.47;;;2.80;;
4377;SDS011;2203;53.686;9.994;2024-03-17T08:20:47;17.27;;;2.70;;
4377;SDS011;2203;53.686;9.994;2024-03-17T08:23:13;26.70;;;2.50;;
4377;SDS011;2203;53.686;9.994;2024-03-17T08:25:39;20.43;;;2.67;;
4377;SDS011;2203;53.686;9.994;2024-03-17T08:28:05;23.90;;;2.83;;
4377;SDS011;2203;53.686;9.994;2024-03-17T08:30:32;22.57;;;2.80;;
4377;SDS011;2203;53.686;9.994;2024-03-17T08:32:57;17.57;;;2.70;;
4377;SDS011;2203;53.686;9.994;2024-03-17T08:35:23;16.30;;;2.30;;
4377;SDS011;2203;53.686;9.994;2024-03-17T08:37:49;24.47;;;3.27;;
4377;SDS011;2203;53.686;9.994;2024-03-17T08:40:16;25.27;;;4.10;;
4377;SDS011;2203;53.686;9.994;2024-03-17T08:42:42;15.50;;;2.63;;
4377;SDS011;2203;53.686;9.994;2024-03-17T08:45:08;27.07;;;2.40;;
4377;SDS011;2203;53.686;9.994;2024-03-17T08:47:34;17.50;;;3.73;;
4377;SDS011;2203;53.686;9.994;2024-03-17T08:49:59;21.47;;;3.13;;
4377;SDS011;2203;53.686;9.994;2024-03-17T08:52:29;21.97;;;5.00;;
4377;SDS011;2203;53.686;9.994;2024-03-17T08:54:57;24.60;;;2.90;;
4377;SDS011;2203;53.686;9.994;2024-03-17T08:57:23;24.50;;;2.63;;
4377;SDS011;2203;53.686;9.994;2024-03-17T08:59:49;14.50;;;2.40;;
4377;SDS011;2203;53.686;9.994;2024-03-17T09:02:14;14.70;;;2.67;;
4377;SDS011;2203;53.686;9.994;2024-03-17T09:04:42;19.27;;;2.30;;
4377;SDS011;2203;53.686;9.994;2024-03-17T09:07:08;19.27;;;2.83;;
4377;SDS011;2203;53.686;9.994;2024-03-17T09:09:33;15.53;;;2.30;;
4377;SDS011;2203;53.686;9.994;2024-03-17T09:12:00;17.20;;;2.60;;
4377;SDS011;2203;53.686;9.994;2024-03-17T09:14:26;24.97;;;3.80;;
4377;SDS011;2203;53.686;9.994;2024-03-17T09:16:51;26.43;;;2.80;;
4377;SDS011;2203;53.686;9.994;2024-03-17T09:19:17;23.47;;;2.43;;
4377;SDS011;2203;53.686;9.994;2024-03-17T09:22:05;21.43;;;3.17;;
4377;SDS011;2203;53.686;9.994;2024-03-17T09:27:52;17.43;;;2.50;;
4377;SDS011;2203;53.686;9.994;2024-03-17T09:30:17;31.43;;;2.53;;
4377;SDS011;2203;53.686;9.994;2024-03-17T09:32:43;27.30;;;3.23;;
4377;SDS011;2203;53.686;9.994;2024-03-17T09:35:09;16.00;;;2.40;;
4377;SDS011;2203;53.686;9.994;2024-03-17T09:37:35;23.53;;;2.67;;
4377;SDS011;2203;53.686;9.994;2024-03-17T09:40:01;22.70;;;3.50;;
4377;SDS011;2203;53.686;9.994;2024-03-17T09:42:47;19.10;;;2.40;;
4377;SDS011;2203;53.686;9.994;2024-03-17T09:45:12;18.03;;;2.20;;
4377;SDS011;2203;53.686;9.994;2024-03-17T09:47:40;20.57;;;2.40;;
4377;SDS011;2203;53.686;9.994;2024-03-17T09:50:06;12.87;;;2.87;;
4377;SDS011;2203;53.686;9.994;2024-03-17T09:52:38;13.40;;;2.10;;
4377;SDS011;2203;53.686;9.994;2024-03-17T09:57:32;11.60;;;2.27;;
4377;SDS011;2203;53.686;9.994;2024-03-17T09:59:59;18.60;;;2.60;;
4377;SDS011;2203;53.686;9.994;2024-03-17T10:02:25;20.33;;;2.30;;
4377;SDS011;2203;53.686;9.994;2024-03-17T10:04:50;23.80;;;2.57;;
4377;SDS011;2203;53.686;9.994;2024-03-17T10:07:15;23.93;;;2.77;;
4377;SDS011;2203;53.686;9.994;2024-03-17T10:09:42;20.70;;;2.13;;
4377;SDS011;2203;53.686;9.994;2024-03-17T10:12:27;12.93;;;2.40;;
4377;SDS011;2203;53.686;9.994;2024-03-17T10:14:57;14.20;;;2.77;;
4377;SDS011;2203;53.686;9.994;2024-03-17T10:17:29;16.00;;;2.60;;
4377;SDS011;2203;53.686;9.994;2024-03-17T10:25:39;17.23;;;2.50;;
4377;SDS011;2203;53.686;9.994;2024-03-17T10:28:15;16.73;;;3.10;;
4377;SDS011;2203;53.686;9.994;2024-03-17T10:30:42;20.73;;;2.30;;
4377;SDS011;2203;53.686;9.994;2024-03-17T10:33:19;14.47;;;1.70;;
4377;SDS011;2203;53.686;9.994;2024-03-17T10:35:47;10.07;;;2.67;;
4377;SDS011;2203;53.686;9.994;2024-03-17T10:38:13;10.83;;;1.70;;
4377;SDS011;2203;53.686;9.994;2024-03-17T10:40:39;10.00;;;2.00;;
4377;SDS011;2203;53.686;9.994;2024-03-17T10:43:07;12.03;;;1.67;;
4377;SDS011;2203;53.686;9.994;2024-03-17T10:45:33;13.03;;;2.37;;
4377;SDS011;2203;53.686;9.994;2024-03-17T10:48:02;10.37;;;1.80;;
4377;SDS011;2203;53.686;9.994;2024-03-17T10:50:32;7.67;;;1.90;;
4377;SDS011;2203;53.686;9.994;2024-03-17T10:53:03;12.73;;;2.10;;
4377;SDS011;2203;53.686;9.994;2024-03-17T10:55:37;20.67;;;2.43;;
4377;SDS011;2203;53.686;9.994;2024-03-17T10:58:05;9.53;;;1.63;;
4377;SDS011;2203;53.686;9.994;2024-03-17T11:00:38;17.50;;;1.90;;
4377;SDS011;2203;53.686;9.994;2024-03-17T11:03:04;9.47;;;1.70;;
4377;SDS011;2203;53.686;9.994;2024-03-17T11:05:36;4.57;;;1.10;;
4377;SDS011;2203;53.686;9.994;2024-03-17T11:08:03;14.90;;;2.47;;
4377;SDS011;2203;53.686;9.994;2024-03-17T11:10:36;15.20;;;1.50;;
4377;SDS011;2203;53.686;9.994;2024-03-17T11:13:03;11.93;;;2.00;;
4377;SDS011;2203;53.686;9.994;2024-03-17T11:20:32;3.80;;;1.40;;
4377;SDS011;2203;53.686;9.994;2024-03-17T11:22:59;9.13;;;1.87;;
4377;SDS011;2203;53.686;9.994;2024-03-17T11:27:59;16.47;;;1.70;;
4377;SDS011;2203;53.686;9.994;2024-03-17T11:30:41;8.60;;;1.60;;
4377;SDS011;2203;53.686;9.994;2024-03-17T11:44:13;15.93;;;2.37;;
4377;SDS011;2203;53.686;9.994;2024-03-17T11:46:39;20.57;;;2.60;;
4377;SDS011;2203;53.686;9.994;2024-03-17T11:49:05;12.50;;;2.00;;
4377;SDS011;2203;53.686;9.994;2024-03-17T11:51:33;13.83;;;1.70;;
4377;SDS011;2203;53.686;9.994;2024-03-17T11:53:59;7.80;;;1.77;;
4377;SDS011;2203;53.686;9.994;2024-03-17T11:56:26;16.73;;;2.40;;
4377;SDS011;2203;53.686;9.994;2024-03-17T11:59:05;10.67;;;2.40;;
4377;SDS011;2203;53.686;9.994;2024-03-17T12:01:34;15.93;;;2.90;;
4377;SDS011;2203;53.686;9.994;2024-03-17T12:04:00;22.30;;;2.70;;
4377;SDS011;2203;53.686;9.994;2024-03-17T12:06:31;14.03;;;1.67;;
4377;SDS011;2203;53.686;9.994;2024-03-17T12:09:07;14.30;;;1.80;;
4377;SDS011;2203;53.686;9.994;2024-03-17T12:11:43;7.60;;;1.93;;
4377;SDS011;2203;53.686;9.994;2024-03-17T12:14:12;14.47;;;2.20;;
4377;SDS011;2203;53.686;9.994;2024-03-17T12:16:54;9.20;;;2.40;;
4377;SDS011;2203;53.686;9.994;2024-03-17T12:19:21;9.37;;;1.83;;
4377;SDS011;2203;53.686;9.994;2024-03-17T12:21:49;9.20;;;1.90;;
4377;SDS011;2203;53.686;9.994;2024-03-17T12:24:19;12.63;;;2.10;;
4377;SDS011;2203;53.686;9.994;2024-03-17T12:26:49;14.07;;;2.10;;
4377;SDS011;2203;53.686;9.994;2024-03-17T12:29:35;17.47;;;2.60;;
4377;SDS011;2203;53.686;9.994;2024-03-17T12:34:35;12.40;;;2.20;;
4377;SDS011;2203;53.686;9.994;2024-03-17T12:37:01;8.27;;;1.83;;
4377;SDS011;2203;53.686;9.994;2024-03-17T12:39:31;12.10;;;2.20;;
4377;SDS011;2203;53.686;9.994;2024-03-17T12:44:36;8.43;;;1.73;;
4377;SDS011;2203;53.686;9.994;2024-03-17T12:47:06;16.43;;;2.33;;
4377;SDS011;2203;53.686;9.994;2024-03-17T12:49:33;13.47;;;2.30;;
4377;SDS011;2203;53.686;9.994;2024-03-17T12:51:59;17.13;;;2.40;;
4377;SDS011;2203;53.686;9.994;2024-03-17T12:54:27;10.90;;;1.97;;
4377;SDS011;2203;53.686;9.994;2024-03-17T12:57:06;17.83;;;2.03;;
4377;SDS011;2203;53.686;9.994;2024-03-17T12:59:51;11.60;;;1.63;;
4377;SDS011;2203;53.686;9.994;2024-03-17T13:02:40;13.67;;;2.40;;
4377;SDS011;2203;53.686;9.994;2024-03-17T13:05:19;15.17;;;2.40;;
4377;SDS011;2203;53.686;9.994;2024-03-17T13:07:48;17.83;;;2.93;;
4377;SDS011;2203;53.686;9.994;2024-03-17T13:10:18;8.23;;;1.80;;
4377;SDS011;2203;53.686;9.994;2024-03-17T13:12:44;10.33;;;2.27;;
4377;SDS011;2203;53.686;9.994;2024-03-17T13:15:11;14.00;;;2.00;;
4377;SDS011;2203;53.686;9.994;2024-03-17T13:17:37;15.03;;;2.67;;
4377;SDS011;2203;53.686;9.994;2024-03-17T13:20:03;10.43;;;1.90;;
4377;SDS011;2203;53.686;9.994;2024-03-17T13:22:32;10.03;;;1.50;;
4377;SDS011;2203;53.686;9.994;2024-03-17T13:24:58;14.67;;;2.07;;
4377;SDS011;2203;53.686;9.994;2024-03-17T13:27:23;14.00;;;2.10;;
4377;SDS011;2203;53.686;9.994;2024-03-17T13:29:49;9.37;;;2.07;;
4377;SDS011;2203;53.686;9.994;2024-03-17T13:32:15;12.07;;;1.70;;
4377;SDS011;2203;53.686;9.994;2024-03-17T13:34:42;7.30;;;1.60;;
4377;SDS011;2203;53.686;9.994;2024-03-17T13:37:09;10.40;;;2.00;;
4377;SDS011;2203;53.686;9.994;2024-03-17T13:39:34;18.60;;;2.20;;
4377;SDS011;2203;53.686;9.994;2024-03-17T13:42:00;12.17;;;2.00;;
4377;SDS011;2203;53.686;9.994;2024-03-17T13:44:31;15.67;;;2.40;;
4377;SDS011;2203;53.686;9.994;2024-03-17T13:46:57;14.10;;;2.33;;
4377;SDS011;2203;53.686;9.994;2024-03-17T13:49:28;8.50;;;1.90;;
4377;SDS011;2203;53.686;9.994;2024-03-17T13:51:54;14.67;;;2.00;;
4377;SDS011;2203;53.686;9.994;2024-03-17T13:54:20;13.57;;;2.30;;
4377;SDS011;2203;53.686;9.994;2024-03-17T13:56:48;13.33;;;2.30;;
4377;SDS011;2203;53.686;9.994;2024-03-17T13:59:16;9.93;;;2.07;;
4377;SDS011;2203;53.686;9.994;2024-03-17T14:01:42;12.87;;;2.43;;
4377;SDS011;2203;53.686;9.994;2024-03-17T14:04:15;17.37;;;2.60;;
4377;SDS011;2203;53.686;9.994;2024-03-17T14:06:41;13.37;;;2.30;;
4377;SDS011;2203;53.686;9.994;2024-03-17T14:09:10;18.80;;;2.53;;
4377;SDS011;2203;53.686;9.994;2024-03-17T14:11:40;7.73;;;1.40;;
4377;SDS011;2203;53.686;9.994;2024-03-17T14:14:07;13.17;;;2.17;;
4377;SDS011;2203;53.686;9.994;2024-03-17T14:16:33;15.20;;;2.27;;
4377;SDS011;2203;53.686;9.994;2024-03-17T14:18:59;10.80;;;2.47;;
4377;SDS011;2203;53.686;9.994;2024-03-17T14:21:28;11.83;;;2.00;;
4377;SDS011;2203;53.686;9.994;2024-03-17T14:23:54;12.40;;;2.27;;
4377;SDS011;2203;53.686;9.994;2024-03-17T14:26:20;7.53;;;1.63;;
4377;SDS011;2203;53.686;9.994;2024-03-17T14:28:47;7.17;;;1.80;;
4377;SDS011;2203;53.686;9.994;2024-03-17T14:31:15;10.10;;;2.10;;
4377;SDS011;2203;53.686;9.994;2024-03-17T14:33:40;9.33;;;2.00;;
4377;SDS011;2203;53.686;9.994;2024-03-17T14:36:06;9.37;;;2.00;;
4377;SDS011;2203;53.686;9.994;2024-03-17T14:38:31;8.50;;;2.03;;
4377;SDS011;2203;53.686;9.994;2024-03-17T14:40:57;20.47;;;2.13;;
4377;SDS011;2203;53.686;9.994;2024-03-17T14:43:22;8.00;;;1.97;;
4377;SDS011;2203;53.686;9.994;2024-03-17T14:45:48;9.87;;;2.13;;
4377;SDS011;2203;53.686;9.994;2024-03-17T14:48:14;18.00;;;2.33;;
4377;SDS011;2203;53.686;9.994;2024-03-17T14:50:39;14.20;;;2.60;;
4377;SDS011;2203;53.686;9.994;2024-03-17T14:53:06;12.27;;;2.00;;
4377;SDS011;2203;53.686;9.994;2024-03-17T14:55:31;15.50;;;3.10;;
4377;SDS011;2203;53.686;9.994;2024-03-17T14:57:57;14.00;;;2.07;;
4377;SDS011;2203;53.686;9.994;2024-03-17T15:00:22;11.23;;;2.30;;
4377;SDS011;2203;53.686;9.994;2024-03-17T15:02:51;9.90;;;2.00;;
4377;SDS011;2203;53.686;9.994;2024-03-17T15:05:17;9.13;;;1.53;;
4377;SDS011;2203;53.686;9.994;2024-03-17T15:07:44;14.27;;;2.37;;
4377;SDS011;2203;53.686;9.994;2024-03-17T15:10:10;14.17;;;2.00;;
4377;SDS011;2203;53.686;9.994;2024-03-17T15:12:37;7.33;;;1.73;;
4377;SDS011;2203;53.686;9.994;2024-03-17T15:15:02;19.13;;;2.63;;
4377;SDS011;2203;53.686;9.994;2024-03-17T15:17:28;13.40;;;2.43;;
4377;SDS011;2203;53.686;9.994;2024-03-17T15:19:53;14.03;;;2.23;;
4377;SDS011;2203;53.686;9.994;2024-03-17T15:22:20;18.43;;;2.20;;
4377;SDS011;2203;53.686;9.994;2024-03-17T15:24:46;7.23;;;1.63;;
4377;SDS011;2203;53.686;9.994;2024-03-17T15:27:12;8.70;;;1.50;;
4377;SDS011;2203;53.686;9.994;2024-03-17T15:29:39;13.83;;;1.90;;
4377;SDS011;2203;53.686;9.994;2024-03-17T15:32:06;8.90;;;1.37;;
4377;SDS011;2203;53.686;9.994;2024-03-17T15:34:31;11.17;;;1.83;;
4377;SDS011;2203;53.686;9.994;2024-03-17T15:36:58;10.90;;;1.90;;
4377;SDS011;2203;53.686;9.994;2024-03-17T15:39:24;8.10;;;1.80;;
4377;SDS011;2203;53.686;9.994;2024-03-17T15:41:49;7.23;;;1.60;;
4377;SDS011;2203;53.686;9.994;2024-03-17T15:44:15;7.90;;;1.73;;
4377;SDS011;2203;53.686;9.994;2024-03-17T15:46:41;10.77;;;1.60;;
4377;SDS011;2203;53.686;9.994;2024-03-17T15:49:06;9.90;;;2.13;;
4377;SDS011;2203;53.686;9.994;2024-03-17T15:51:32;9.40;;;2.67;;
4377;SDS011;2203;53.686;9.994;2024-03-17T15:53:57;8.27;;;1.80;;